sensor_id;sensor_type;location;lat;lon;timestamp;P1;durP1;ratioP1;P2;durP2;ratioP2
33246;SDS011;19606;50.108;19.804;2022-09-25T00:01:20;53.30;;;29.70;;
33246;SDS011;19606;50.108;19.804;2022-09-25T00:03:46;51.75;;;30.23;;
33246;SDS011;19606;50.108;19.804;2022-09-25T00:06:14;51.45;;;27.35;;
33246;SDS011;19606;50.108;19.804;2022-09-25T00:08:40;62.83;;;30.50;;
33246;SDS011;19606;50.108;19.804;2022-09-25T00:11:07;64.03;;;29.23;;
33246;SDS011;19606;50.108;19.804;2022-09-25T00:13:34;57.95;;;29.23;;
33246;SDS011;19606;50.108;19.804;2022-09-25T00:16:01;58.47;;;29.98;;
33246;SDS011;19606;50.108;19.804;2022-09-25T00:18:27;54.42;;;28.35;;
33246;SDS011;19606;50.108;19.804;2022-09-25T00:21:13;52.90;;;26.65;;
33246;SDS011;19606;50.108;19.804;2022-09-25T00:23:40;55.13;;;28.48;;
33246;SDS011;19606;50.108;19.804;2022-09-25T00:26:08;51.85;;;29.00;;
33246;SDS011;19606;50.108;19.804;2022-09-25T00:28:34;49.30;;;27.73;;
33246;SDS011;19606;50.108;19.804;2022-09-25T00:31:01;64.85;;;31.63;;
33246;SDS011;19606;50.108;19.804;2022-09-25T00:33:28;63.78;;;33.55;;
33246;SDS011;19606;50.108;19.804;2022-09-25T00:35:54;68.05;;;32.83;;
33246;SDS011;19606;50.108;19.804;2022-09-25T00:38:20;54.83;;;29.75;;
33246;SDS011;19606;50.108;19.804;2022-09-25T00:40:47;56.33;;;29.15;;
33246;SDS011;19606;50.108;19.804;2022-09-25T00:43:32;56.15;;;29.25;;
33246;SDS011;19606;50.108;19.804;2022-09-25T00:45:59;57.03;;;30.85;;
33246;SDS011;19606;50.108;19.804;2022-09-25T00:48:26;50.65;;;27.48;;
33246;SDS011;19606;50.108;19.804;2022-09-25T00:50:53;56.35;;;28.75;;
33246;SDS011;19606;50.108;19.804;2022-09-25T00:53:29;53.88;;;28.90;;
33246;SDS011;19606;50.108;19.804;2022-09-25T00:55:56;51.67;;;28.38;;
33246;SDS011;19606;50.108;19.804;2022-09-25T00:58:24;54.67;;;31.27;;
33246;SDS011;19606;50.108;19.804;2022-09-25T01:00:51;57.28;;;29.58;;
33246;SDS011;19606;50.108;19.804;2022-09-25T01:03:19;57.95;;;30.20;;
33246;SDS011;19606;50.108;19.804;2022-09-25T01:05:45;51.47;;;28.70;;
33246;SDS011;19606;50.108;19.804;2022-09-25T01:08:14;53.60;;;28.83;;
33246;SDS011;19606;50.108;19.804;2022-09-25T01:10:41;49.75;;;27.42;;
33246;SDS011;19606;50.108;19.804;2022-09-25T01:13:07;53.00;;;27.90;;
33246;SDS011;19606;50.108;19.804;2022-09-25T01:31:17;69.20;;;30.23;;
33246;SDS011;19606;50.108;19.804;2022-09-25T01:33:49;51.35;;;28.45;;
33246;SDS011;19606;50.108;19.804;2022-09-25T01:36:27;50.10;;;26.80;;
33246;SDS011;19606;50.108;19.804;2022-09-25T01:38:54;53.47;;;26.25;;
33246;SDS011;19606;50.108;19.804;2022-09-25T01:41:27;50.22;;;27.08;;
33246;SDS011;19606;50.108;19.804;2022-09-25T01:46:27;54.88;;;29.27;;
33246;SDS011;19606;50.108;19.804;2022-09-25T01:48:55;48.38;;;27.48;;
33246;SDS011;19606;50.108;19.804;2022-09-25T01:51:28;48.72;;;27.35;;
33246;SDS011;19606;50.108;19.804;2022-09-25T01:53:58;51.65;;;28.60;;
33246;SDS011;19606;50.108;19.804;2022-09-25T01:56:27;54.53;;;28.60;;
33246;SDS011;19606;50.108;19.804;2022-09-25T01:59:02;51.40;;;29.83;;
33246;SDS011;19606;50.108;19.804;2022-09-25T02:01:31;60.17;;;32.78;;
33246;SDS011;19606;50.108;19.804;2022-09-25T02:04:03;63.78;;;35.95;;
33246;SDS011;19606;50.108;19.804;2022-09-25T02:06:30;65.43;;;35.80;;
33246;SDS011;19606;50.108;19.804;2022-09-25T02:09:00;68.07;;;35.00;;
33246;SDS011;19606;50.108;19.804;2022-09-25T02:11:28;65.05;;;34.67;;
33246;SDS011;19606;50.108;19.804;2022-09-25T02:13:58;59.33;;;33.15;;
33246;SDS011;19606;50.108;19.804;2022-09-25T02:16:30;62.38;;;33.15;;
33246;SDS011;19606;50.108;19.804;2022-09-25T02:18:59;62.40;;;34.63;;
33246;SDS011;19606;50.108;19.804;2022-09-25T02:26:45;68.32;;;35.72;;
33246;SDS011;19606;50.108;19.804;2022-09-25T02:29:11;62.97;;;33.78;;
33246;SDS011;19606;50.108;19.804;2022-09-25T02:34:35;76.22;;;35.72;;
33246;SDS011;19606;50.108;19.804;2022-09-25T02:37:02;57.95;;;32.88;;
33246;SDS011;19606;50.108;19.804;2022-09-25T02:39:30;56.00;;;33.05;;
33246;SDS011;19606;50.108;19.804;2022-09-25T02:47:29;59.67;;;30.50;;
33246;SDS011;19606;50.108;19.804;2022-09-25T02:52:38;52.72;;;29.23;;
33246;SDS011;19606;50.108;19.804;2022-09-25T02:55:14;42.95;;;26.02;;
33246;SDS011;19606;50.108;19.804;2022-09-25T03:00:11;49.83;;;27.60;;
33246;SDS011;19606;50.108;19.804;2022-09-25T03:02:37;50.92;;;28.50;;
33246;SDS011;19606;50.108;19.804;2022-09-25T03:05:04;46.75;;;27.13;;
33246;SDS011;19606;50.108;19.804;2022-09-25T03:07:31;49.90;;;28.48;;
33246;SDS011;19606;50.108;19.804;2022-09-25T03:10:17;47.30;;;27.73;;
33246;SDS011;19606;50.108;19.804;2022-09-25T03:12:44;58.70;;;30.20;;
33246;SDS011;19606;50.108;19.804;2022-09-25T03:15:10;56.88;;;32.28;;
33246;SDS011;19606;50.108;19.804;2022-09-25T03:17:36;57.47;;;31.85;;
33246;SDS011;19606;50.108;19.804;2022-09-25T03:20:05;53.88;;;30.73;;
33246;SDS011;19606;50.108;19.804;2022-09-25T03:22:31;59.45;;;29.70;;
33246;SDS011;19606;50.108;19.804;2022-09-25T03:24:57;50.72;;;29.55;;
33246;SDS011;19606;50.108;19.804;2022-09-25T03:27:23;53.13;;;31.15;;
33246;SDS011;19606;50.108;19.804;2022-09-25T03:29:52;59.60;;;32.30;;
33246;SDS011;19606;50.108;19.804;2022-09-25T03:32:19;63.00;;;35.90;;
33246;SDS011;19606;50.108;19.804;2022-09-25T03:34:45;64.72;;;36.08;;
33246;SDS011;19606;50.108;19.804;2022-09-25T03:37:11;65.60;;;36.03;;
33246;SDS011;19606;50.108;19.804;2022-09-25T03:39:37;60.80;;;35.00;;
33246;SDS011;19606;50.108;19.804;2022-09-25T03:42:03;60.40;;;34.75;;
33246;SDS011;19606;50.108;19.804;2022-09-25T03:44:30;68.32;;;36.03;;
33246;SDS011;19606;50.108;19.804;2022-09-25T03:46:56;66.47;;;35.00;;
33246;SDS011;19606;50.108;19.804;2022-09-25T03:49:22;64.28;;;36.10;;
33246;SDS011;19606;50.108;19.804;2022-09-25T03:51:48;67.10;;;36.60;;
33246;SDS011;19606;50.108;19.804;2022-09-25T03:54:14;60.35;;;33.72;;
33246;SDS011;19606;50.108;19.804;2022-09-25T03:56:40;60.58;;;31.30;;
33246;SDS011;19606;50.108;19.804;2022-09-25T03:59:06;58.50;;;34.60;;
33246;SDS011;19606;50.108;19.804;2022-09-25T04:01:32;58.97;;;32.70;;
33246;SDS011;19606;50.108;19.804;2022-09-25T04:04:00;62.92;;;33.55;;
33246;SDS011;19606;50.108;19.804;2022-09-25T04:06:27;55.65;;;30.92;;
33246;SDS011;19606;50.108;19.804;2022-09-25T04:08:53;60.58;;;32.15;;
33246;SDS011;19606;50.108;19.804;2022-09-25T04:11:21;56.08;;;30.05;;
33246;SDS011;19606;50.108;19.804;2022-09-25T04:13:48;54.15;;;30.80;;
33246;SDS011;19606;50.108;19.804;2022-09-25T04:16:14;51.58;;;28.75;;
33246;SDS011;19606;50.108;19.804;2022-09-25T04:18:41;50.85;;;27.10;;
33246;SDS011;19606;50.108;19.804;2022-09-25T04:21:08;49.80;;;29.50;;
33246;SDS011;19606;50.108;19.804;2022-09-25T04:23:34;52.05;;;29.90;;
33246;SDS011;19606;50.108;19.804;2022-09-25T04:26:00;55.47;;;31.00;;
33246;SDS011;19606;50.108;19.804;2022-09-25T04:28:26;54.65;;;28.48;;
33246;SDS011;19606;50.108;19.804;2022-09-25T04:30:55;52.75;;;27.35;;
33246;SDS011;19606;50.108;19.804;2022-09-25T04:33:21;53.42;;;29.60;;
33246;SDS011;19606;50.108;19.804;2022-09-25T04:36:05;50.80;;;28.52;;
33246;SDS011;19606;50.108;19.804;2022-09-25T04:38:31;53.83;;;30.23;;
33246;SDS011;19606;50.108;19.804;2022-09-25T04:41:01;54.72;;;30.05;;
33246;SDS011;19606;50.108;19.804;2022-09-25T04:43:30;52.03;;;28.42;;
33246;SDS011;19606;50.108;19.804;2022-09-25T04:46:00;56.85;;;28.77;;
33246;SDS011;19606;50.108;19.804;2022-09-25T04:48:26;54.80;;;29.35;;
33246;SDS011;19606;50.108;19.804;2022-09-25T04:50:52;53.35;;;29.80;;
33246;SDS011;19606;50.108;19.804;2022-09-25T04:53:18;55.20;;;29.77;;
33246;SDS011;19606;50.108;19.804;2022-09-25T04:55:44;53.83;;;31.15;;
33246;SDS011;19606;50.108;19.804;2022-09-25T04:58:12;49.03;;;27.60;;
33246;SDS011;19606;50.108;19.804;2022-09-25T05:00:38;55.30;;;28.48;;
33246;SDS011;19606;50.108;19.804;2022-09-25T05:03:05;48.58;;;28.33;;
33246;SDS011;19606;50.108;19.804;2022-09-25T05:05:31;51.92;;;28.90;;
33246;SDS011;19606;50.108;19.804;2022-09-25T05:07:58;51.63;;;30.02;;
33246;SDS011;19606;50.108;19.804;2022-09-25T05:10:25;55.92;;;31.55;;
33246;SDS011;19606;50.108;19.804;2022-09-25T05:12:55;52.90;;;30.42;;
33246;SDS011;19606;50.108;19.804;2022-09-25T05:15:22;54.43;;;32.40;;
33246;SDS011;19606;50.108;19.804;2022-09-25T05:17:48;56.92;;;31.40;;
33246;SDS011;19606;50.108;19.804;2022-09-25T05:20:16;56.38;;;31.15;;
33246;SDS011;19606;50.108;19.804;2022-09-25T05:22:42;58.20;;;31.20;;
33246;SDS011;19606;50.108;19.804;2022-09-25T05:25:08;56.88;;;32.20;;
33246;SDS011;19606;50.108;19.804;2022-09-25T05:27:35;55.03;;;31.40;;
33246;SDS011;19606;50.108;19.804;2022-09-25T05:30:00;55.95;;;31.42;;
33246;SDS011;19606;50.108;19.804;2022-09-25T05:32:27;57.72;;;32.70;;
33246;SDS011;19606;50.108;19.804;2022-09-25T05:34:55;56.10;;;33.10;;
33246;SDS011;19606;50.108;19.804;2022-09-25T05:37:20;53.47;;;31.42;;
33246;SDS011;19606;50.108;19.804;2022-09-25T05:39:46;53.25;;;30.75;;
33246;SDS011;19606;50.108;19.804;2022-09-25T05:42:12;55.35;;;31.58;;
33246;SDS011;19606;50.108;19.804;2022-09-25T05:44:41;51.08;;;29.83;;
33246;SDS011;19606;50.108;19.804;2022-09-25T05:47:07;45.60;;;28.55;;
33246;SDS011;19606;50.108;19.804;2022-09-25T05:49:33;46.60;;;28.63;;
33246;SDS011;19606;50.108;19.804;2022-09-25T05:51:59;43.03;;;27.65;;
33246;SDS011;19606;50.108;19.804;2022-09-25T05:54:25;45.47;;;25.08;;
33246;SDS011;19606;50.108;19.804;2022-09-25T05:56:51;44.28;;;24.70;;
33246;SDS011;19606;50.108;19.804;2022-09-25T05:59:17;41.17;;;25.30;;
33246;SDS011;19606;50.108;19.804;2022-09-25T06:01:43;37.47;;;25.35;;
33246;SDS011;19606;50.108;19.804;2022-09-25T06:04:09;39.35;;;24.95;;
33246;SDS011;19606;50.108;19.804;2022-09-25T06:06:35;39.47;;;24.33;;
33246;SDS011;19606;50.108;19.804;2022-09-25T06:09:01;38.38;;;25.08;;
33246;SDS011;19606;50.108;19.804;2022-09-25T06:11:27;38.25;;;24.13;;
33246;SDS011;19606;50.108;19.804;2022-09-25T06:13:55;36.45;;;24.65;;
33246;SDS011;19606;50.108;19.804;2022-09-25T06:16:21;37.67;;;23.92;;
33246;SDS011;19606;50.108;19.804;2022-09-25T06:18:47;36.60;;;24.15;;
33246;SDS011;19606;50.108;19.804;2022-09-25T06:21:13;39.03;;;24.50;;
33246;SDS011;19606;50.108;19.804;2022-09-25T06:23:40;39.45;;;25.27;;
33246;SDS011;19606;50.108;19.804;2022-09-25T06:26:07;36.90;;;24.02;;
33246;SDS011;19606;50.108;19.804;2022-09-25T06:28:34;43.80;;;27.65;;
33246;SDS011;19606;50.108;19.804;2022-09-25T06:31:01;47.00;;;28.80;;
33246;SDS011;19606;50.108;19.804;2022-09-25T06:33:27;44.25;;;26.52;;
33246;SDS011;19606;50.108;19.804;2022-09-25T06:35:53;48.35;;;30.35;;
33246;SDS011;19606;50.108;19.804;2022-09-25T06:38:19;46.72;;;29.15;;
33246;SDS011;19606;50.108;19.804;2022-09-25T06:40:45;47.78;;;27.33;;
33246;SDS011;19606;50.108;19.804;2022-09-25T06:43:14;44.75;;;28.80;;
33246;SDS011;19606;50.108;19.804;2022-09-25T06:45:43;44.35;;;27.85;;
33246;SDS011;19606;50.108;19.804;2022-09-25T06:48:12;48.25;;;27.65;;
33246;SDS011;19606;50.108;19.804;2022-09-25T06:53:05;44.17;;;27.95;;
33246;SDS011;19606;50.108;19.804;2022-09-25T06:55:31;40.05;;;26.20;;
33246;SDS011;19606;50.108;19.804;2022-09-25T06:57:58;36.15;;;22.48;;
33246;SDS011;19606;50.108;19.804;2022-09-25T07:00:24;34.45;;;21.65;;
33246;SDS011;19606;50.108;19.804;2022-09-25T07:02:50;39.15;;;23.63;;
33246;SDS011;19606;50.108;19.804;2022-09-25T07:05:35;41.60;;;25.58;;
33246;SDS011;19606;50.108;19.804;2022-09-25T07:08:01;47.00;;;24.20;;
33246;SDS011;19606;50.108;19.804;2022-09-25T07:10:27;27.83;;;18.23;;
33246;SDS011;19606;50.108;19.804;2022-09-25T07:12:53;26.45;;;16.98;;
33246;SDS011;19606;50.108;19.804;2022-09-25T07:15:20;23.58;;;15.57;;
33246;SDS011;19606;50.108;19.804;2022-09-25T07:17:46;25.80;;;16.50;;
33246;SDS011;19606;50.108;19.804;2022-09-25T07:20:13;30.27;;;16.98;;
33246;SDS011;19606;50.108;19.804;2022-09-25T07:22:39;25.65;;;16.02;;
33246;SDS011;19606;50.108;19.804;2022-09-25T07:25:06;21.15;;;13.27;;
33246;SDS011;19606;50.108;19.804;2022-09-25T07:27:33;27.85;;;13.60;;
33246;SDS011;19606;50.108;19.804;2022-09-25T07:29:59;20.42;;;12.80;;
33246;SDS011;19606;50.108;19.804;2022-09-25T07:32:27;18.83;;;13.10;;
33246;SDS011;19606;50.108;19.804;2022-09-25T07:34:53;18.98;;;11.40;;
33246;SDS011;19606;50.108;19.804;2022-09-25T07:37:19;21.02;;;11.02;;
33246;SDS011;19606;50.108;19.804;2022-09-25T07:39:45;23.95;;;12.52;;
33246;SDS011;19606;50.108;19.804;2022-09-25T07:42:11;19.77;;;11.85;;
33246;SDS011;19606;50.108;19.804;2022-09-25T07:44:37;20.73;;;14.15;;
33246;SDS011;19606;50.108;19.804;2022-09-25T07:47:03;23.27;;;13.18;;
33246;SDS011;19606;50.108;19.804;2022-09-25T07:49:30;24.15;;;14.57;;
33246;SDS011;19606;50.108;19.804;2022-09-25T07:51:57;21.45;;;13.82;;
33246;SDS011;19606;50.108;19.804;2022-09-25T07:54:23;22.38;;;15.80;;
33246;SDS011;19606;50.108;19.804;2022-09-25T07:56:49;28.20;;;17.17;;
33246;SDS011;19606;50.108;19.804;2022-09-25T07:59:15;28.15;;;17.73;;
33246;SDS011;19606;50.108;19.804;2022-09-25T08:01:41;35.70;;;19.98;;
33246;SDS011;19606;50.108;19.804;2022-09-25T08:04:07;39.17;;;22.75;;
33246;SDS011;19606;50.108;19.804;2022-09-25T08:06:33;43.50;;;25.42;;
33246;SDS011;19606;50.108;19.804;2022-09-25T08:08:59;38.53;;;25.02;;
33246;SDS011;19606;50.108;19.804;2022-09-25T08:11:25;43.88;;;24.35;;
33246;SDS011;19606;50.108;19.804;2022-09-25T08:13:52;42.00;;;24.98;;
33246;SDS011;19606;50.108;19.804;2022-09-25T08:16:18;40.25;;;23.40;;
33246;SDS011;19606;50.108;19.804;2022-09-25T08:18:46;35.88;;;24.15;;
33246;SDS011;19606;50.108;19.804;2022-09-25T08:21:18;37.10;;;23.65;;
33246;SDS011;19606;50.108;19.804;2022-09-25T08:23:47;35.25;;;22.85;;
33246;SDS011;19606;50.108;19.804;2022-09-25T08:26:17;42.38;;;24.08;;
33246;SDS011;19606;50.108;19.804;2022-09-25T08:28:45;38.38;;;23.35;;
33246;SDS011;19606;50.108;19.804;2022-09-25T08:31:11;39.78;;;24.73;;
33246;SDS011;19606;50.108;19.804;2022-09-25T08:33:38;34.80;;;23.05;;
33246;SDS011;19606;50.108;19.804;2022-09-25T08:36:08;37.10;;;22.48;;
33246;SDS011;19606;50.108;19.804;2022-09-25T08:38:34;36.20;;;23.60;;
33246;SDS011;19606;50.108;19.804;2022-09-25T08:41:20;40.85;;;24.05;;
33246;SDS011;19606;50.108;19.804;2022-09-25T08:46:38;40.60;;;25.80;;
33246;SDS011;19606;50.108;19.804;2022-09-25T08:49:54;38.67;;;25.37;;
33246;SDS011;19606;50.108;19.804;2022-09-25T08:52:22;41.15;;;23.73;;
33246;SDS011;19606;50.108;19.804;2022-09-25T08:54:48;39.13;;;23.08;;
33246;SDS011;19606;50.108;19.804;2022-09-25T09:00:03;29.67;;;19.20;;
33246;SDS011;19606;50.108;19.804;2022-09-25T09:05:18;30.60;;;19.50;;
33246;SDS011;19606;50.108;19.804;2022-09-25T09:07:49;26.40;;;17.88;;
33246;SDS011;19606;50.108;19.804;2022-09-25T09:10:32;30.25;;;18.60;;
33246;SDS011;19606;50.108;19.804;2022-09-25T09:18:51;32.15;;;20.98;;
33246;SDS011;19606;50.108;19.804;2022-09-25T09:24:20;36.42;;;21.70;;
33246;SDS011;19606;50.108;19.804;2022-09-25T09:29:39;36.67;;;23.00;;
33246;SDS011;19606;50.108;19.804;2022-09-25T09:32:25;36.78;;;19.95;;
33246;SDS011;19606;50.108;19.804;2022-09-25T09:45:52;28.38;;;19.02;;
33246;SDS011;19606;50.108;19.804;2022-09-25T09:52:01;29.38;;;19.08;;
33246;SDS011;19606;50.108;19.804;2022-09-25T09:55:06;28.33;;;18.38;;
33246;SDS011;19606;50.108;19.804;2022-09-25T09:57:19;29.65;;;20.00;;
33246;SDS011;19606;50.108;19.804;2022-09-25T10:08:08;45.88;;;26.45;;
33246;SDS011;19606;50.108;19.804;2022-09-25T10:10:35;36.90;;;22.75;;
33246;SDS011;19606;50.108;19.804;2022-09-25T10:13:03;36.70;;;23.40;;
33246;SDS011;19606;50.108;19.804;2022-09-25T10:15:41;33.53;;;20.70;;
33246;SDS011;19606;50.108;19.804;2022-09-25T10:18:12;34.33;;;19.67;;
33246;SDS011;19606;50.108;19.804;2022-09-25T10:20:41;24.77;;;15.85;;
33246;SDS011;19606;50.108;19.804;2022-09-25T10:23:15;26.83;;;16.63;;
33246;SDS011;19606;50.108;19.804;2022-09-25T10:26:01;32.03;;;18.02;;
33246;SDS011;19606;50.108;19.804;2022-09-25T10:28:31;47.55;;;26.70;;
33246;SDS011;19606;50.108;19.804;2022-09-25T10:31:00;38.50;;;23.42;;
33246;SDS011;19606;50.108;19.804;2022-09-25T10:33:30;30.75;;;19.10;;
33246;SDS011;19606;50.108;19.804;2022-09-25T10:35:57;32.30;;;19.02;;
33246;SDS011;19606;50.108;19.804;2022-09-25T10:38:40;30.10;;;18.58;;
33246;SDS011;19606;50.108;19.804;2022-09-25T10:43:54;24.67;;;15.57;;
33246;SDS011;19606;50.108;19.804;2022-09-25T10:46:33;28.23;;;18.20;;
33246;SDS011;19606;50.108;19.804;2022-09-25T10:49:23;28.67;;;17.85;;
33246;SDS011;19606;50.108;19.804;2022-09-25T10:52:09;27.15;;;17.35;;
33246;SDS011;19606;50.108;19.804;2022-09-25T10:54:39;29.35;;;18.65;;
33246;SDS011;19606;50.108;19.804;2022-09-25T10:57:13;28.50;;;18.05;;
33246;SDS011;19606;50.108;19.804;2022-09-25T10:59:45;23.05;;;15.65;;
33246;SDS011;19606;50.108;19.804;2022-09-25T11:02:37;26.60;;;16.15;;
33246;SDS011;19606;50.108;19.804;2022-09-25T11:05:06;23.35;;;15.30;;
33246;SDS011;19606;50.108;19.804;2022-09-25T11:07:45;21.35;;;14.48;;
33246;SDS011;19606;50.108;19.804;2022-09-25T11:10:19;23.65;;;15.70;;
33246;SDS011;19606;50.108;19.804;2022-09-25T11:12:46;17.88;;;12.73;;
33246;SDS011;19606;50.108;19.804;2022-09-25T11:15:15;21.05;;;14.57;;
33246;SDS011;19606;50.108;19.804;2022-09-25T11:17:44;22.88;;;14.23;;
33246;SDS011;19606;50.108;19.804;2022-09-25T11:22:45;19.05;;;14.00;;
33246;SDS011;19606;50.108;19.804;2022-09-25T11:27:49;19.77;;;12.30;;
33246;SDS011;19606;50.108;19.804;2022-09-25T11:30:21;19.63;;;13.23;;
33246;SDS011;19606;50.108;19.804;2022-09-25T11:33:05;24.75;;;14.02;;
33246;SDS011;19606;50.108;19.804;2022-09-25T11:38:12;21.25;;;13.95;;
33246;SDS011;19606;50.108;19.804;2022-09-25T11:41:30;18.60;;;12.75;;
33246;SDS011;19606;50.108;19.804;2022-09-25T12:05:23;31.33;;;12.77;;
33246;SDS011;19606;50.108;19.804;2022-09-25T12:13:58;19.10;;;13.23;;
33246;SDS011;19606;50.108;19.804;2022-09-25T12:19:57;18.23;;;12.88;;
33246;SDS011;19606;50.108;19.804;2022-09-25T12:33:22;28.27;;;17.08;;
33246;SDS011;19606;50.108;19.804;2022-09-25T12:35:54;20.17;;;12.85;;
33246;SDS011;19606;50.108;19.804;2022-09-25T12:38:27;25.63;;;14.93;;
33246;SDS011;19606;50.108;19.804;2022-09-25T12:48:44;27.77;;;16.02;;
33246;SDS011;19606;50.108;19.804;2022-09-25T12:51:32;23.23;;;13.63;;
33246;SDS011;19606;50.108;19.804;2022-09-25T12:54:04;19.23;;;12.77;;
33246;SDS011;19606;50.108;19.804;2022-09-25T12:59:43;35.58;;;18.00;;
33246;SDS011;19606;50.108;19.804;2022-09-25T13:02:25;13.20;;;9.93;;
33246;SDS011;19606;50.108;19.804;2022-09-25T13:08:13;16.08;;;9.02;;
33246;SDS011;19606;50.108;19.804;2022-09-25T13:10:30;13.40;;;9.20;;
33246;SDS011;19606;50.108;19.804;2022-09-25T13:12:58;16.25;;;10.93;;
33246;SDS011;19606;50.108;19.804;2022-09-25T13:15:29;25.55;;;18.13;;
33246;SDS011;19606;50.108;19.804;2022-09-25T13:17:56;25.13;;;17.90;;
33246;SDS011;19606;50.108;19.804;2022-09-25T13:22:56;17.50;;;11.98;;
33246;SDS011;19606;50.108;19.804;2022-09-25T13:25:23;13.52;;;9.82;;
33246;SDS011;19606;50.108;19.804;2022-09-25T13:27:50;18.17;;;10.48;;
33246;SDS011;19606;50.108;19.804;2022-09-25T13:30:24;13.38;;;9.35;;
33246;SDS011;19606;50.108;19.804;2022-09-25T13:32:52;12.60;;;9.32;;
33246;SDS011;19606;50.108;19.804;2022-09-25T13:35:20;14.73;;;10.40;;
33246;SDS011;19606;50.108;19.804;2022-09-25T13:37:47;15.32;;;9.82;;
33246;SDS011;19606;50.108;19.804;2022-09-25T13:40:15;12.60;;;9.35;;
33246;SDS011;19606;50.108;19.804;2022-09-25T13:45:44;11.65;;;9.23;;
33246;SDS011;19606;50.108;19.804;2022-09-25T13:48:11;13.82;;;9.13;;
33246;SDS011;19606;50.108;19.804;2022-09-25T13:50:40;12.60;;;10.18;;
33246;SDS011;19606;50.108;19.804;2022-09-25T13:56:03;15.60;;;11.75;;
33246;SDS011;19606;50.108;19.804;2022-09-25T13:58:29;14.75;;;11.05;;
33246;SDS011;19606;50.108;19.804;2022-09-25T14:01:10;16.05;;;11.30;;
33246;SDS011;19606;50.108;19.804;2022-09-25T14:03:40;14.13;;;9.43;;
33246;SDS011;19606;50.108;19.804;2022-09-25T14:06:19;15.45;;;9.60;;
33246;SDS011;19606;50.108;19.804;2022-09-25T14:08:47;12.70;;;9.98;;
33246;SDS011;19606;50.108;19.804;2022-09-25T14:11:20;12.85;;;8.98;;
33246;SDS011;19606;50.108;19.804;2022-09-25T14:13:47;11.95;;;9.30;;
33246;SDS011;19606;50.108;19.804;2022-09-25T14:16:31;20.75;;;12.55;;
33246;SDS011;19606;50.108;19.804;2022-09-25T14:18:59;16.20;;;10.45;;
33246;SDS011;19606;50.108;19.804;2022-09-25T14:21:25;13.73;;;9.75;;
33246;SDS011;19606;50.108;19.804;2022-09-25T14:23:56;13.75;;;9.13;;
33246;SDS011;19606;50.108;19.804;2022-09-25T14:26:23;14.67;;;8.70;;
33246;SDS011;19606;50.108;19.804;2022-09-25T14:28:50;15.23;;;9.32;;
33246;SDS011;19606;50.108;19.804;2022-09-25T14:46:51;21.65;;;15.10;;
33246;SDS011;19606;50.108;19.804;2022-09-25T14:49:22;19.55;;;12.77;;
33246;SDS011;19606;50.108;19.804;2022-09-25T14:51:49;20.33;;;12.43;;
33246;SDS011;19606;50.108;19.804;2022-09-25T14:54:22;18.80;;;13.45;;
33246;SDS011;19606;50.108;19.804;2022-09-25T14:56:49;29.92;;;17.83;;
33246;SDS011;19606;50.108;19.804;2022-09-25T14:59:20;26.13;;;17.40;;
33246;SDS011;19606;50.108;19.804;2022-09-25T15:01:50;24.50;;;15.90;;
33246;SDS011;19606;50.108;19.804;2022-09-25T15:04:27;28.13;;;14.98;;
33246;SDS011;19606;50.108;19.804;2022-09-25T15:07:07;22.25;;;15.43;;
33246;SDS011;19606;50.108;19.804;2022-09-25T15:09:39;24.42;;;15.43;;
33246;SDS011;19606;50.108;19.804;2022-09-25T15:12:15;27.17;;;14.35;;
33246;SDS011;19606;50.108;19.804;2022-09-25T15:17:23;20.08;;;14.88;;
33246;SDS011;19606;50.108;19.804;2022-09-25T15:19:51;28.30;;;16.55;;
33246;SDS011;19606;50.108;19.804;2022-09-25T15:22:19;29.23;;;17.60;;
33246;SDS011;19606;50.108;19.804;2022-09-25T15:24:48;27.02;;;16.95;;
33246;SDS011;19606;50.108;19.804;2022-09-25T15:27:15;35.45;;;19.25;;
33246;SDS011;19606;50.108;19.804;2022-09-25T15:29:43;43.25;;;26.40;;
33246;SDS011;19606;50.108;19.804;2022-09-25T15:32:16;30.73;;;19.55;;
33246;SDS011;19606;50.108;19.804;2022-09-25T15:34:43;27.65;;;17.98;;
33246;SDS011;19606;50.108;19.804;2022-09-25T15:39:46;28.95;;;20.13;;
33246;SDS011;19606;50.108;19.804;2022-09-25T15:42:12;33.28;;;21.42;;
33246;SDS011;19606;50.108;19.804;2022-09-25T15:44:39;35.00;;;22.20;;
33246;SDS011;19606;50.108;19.804;2022-09-25T15:49:53;40.80;;;26.25;;
33246;SDS011;19606;50.108;19.804;2022-09-25T15:52:24;31.73;;;22.08;;
33246;SDS011;19606;50.108;19.804;2022-09-25T15:54:53;32.95;;;21.88;;
33246;SDS011;19606;50.108;19.804;2022-09-25T15:57:25;32.55;;;23.35;;
33246;SDS011;19606;50.108;19.804;2022-09-25T15:59:52;38.00;;;25.67;;
33246;SDS011;19606;50.108;19.804;2022-09-25T16:02:39;32.15;;;22.27;;
33246;SDS011;19606;50.108;19.804;2022-09-25T16:05:28;33.03;;;22.42;;
33246;SDS011;19606;50.108;19.804;2022-09-25T16:10:42;37.88;;;23.75;;
33246;SDS011;19606;50.108;19.804;2022-09-25T16:13:42;41.25;;;24.23;;
33246;SDS011;19606;50.108;19.804;2022-09-25T16:16:03;40.65;;;22.85;;
33246;SDS011;19606;50.108;19.804;2022-09-25T16:18:41;40.55;;;24.42;;
33246;SDS011;19606;50.108;19.804;2022-09-25T16:21:11;38.25;;;24.08;;
33246;SDS011;19606;50.108;19.804;2022-09-25T16:23:38;41.90;;;27.25;;
33246;SDS011;19606;50.108;19.804;2022-09-25T16:26:19;42.35;;;24.50;;
33246;SDS011;19606;50.108;19.804;2022-09-25T16:29:00;38.30;;;24.05;;
33246;SDS011;19606;50.108;19.804;2022-09-25T16:31:27;35.22;;;23.17;;
33246;SDS011;19606;50.108;19.804;2022-09-25T16:33:53;36.33;;;23.40;;
33246;SDS011;19606;50.108;19.804;2022-09-25T16:36:21;44.97;;;25.42;;
33246;SDS011;19606;50.108;19.804;2022-09-25T16:39:10;40.38;;;26.52;;
33246;SDS011;19606;50.108;19.804;2022-09-25T16:41:37;47.25;;;29.70;;
33246;SDS011;19606;50.108;19.804;2022-09-25T16:46:40;50.60;;;32.35;;
33246;SDS011;19606;50.108;19.804;2022-09-25T16:49:06;56.42;;;30.65;;
33246;SDS011;19606;50.108;19.804;2022-09-25T16:51:32;42.22;;;27.30;;
33246;SDS011;19606;50.108;19.804;2022-09-25T16:53:58;46.22;;;28.13;;
33246;SDS011;19606;50.108;19.804;2022-09-25T16:56:26;40.28;;;26.00;;
33246;SDS011;19606;50.108;19.804;2022-09-25T16:58:53;43.13;;;26.40;;
33246;SDS011;19606;50.108;19.804;2022-09-25T17:01:19;37.22;;;25.23;;
33246;SDS011;19606;50.108;19.804;2022-09-25T17:03:46;44.67;;;26.80;;
33246;SDS011;19606;50.108;19.804;2022-09-25T17:06:16;46.47;;;26.40;;
33246;SDS011;19606;50.108;19.804;2022-09-25T17:08:42;45.53;;;26.58;;
33246;SDS011;19606;50.108;19.804;2022-09-25T17:11:09;41.05;;;25.30;;
33246;SDS011;19606;50.108;19.804;2022-09-25T17:13:35;37.17;;;22.63;;
33246;SDS011;19606;50.108;19.804;2022-09-25T17:16:01;37.53;;;22.42;;
33246;SDS011;19606;50.108;19.804;2022-09-25T17:18:27;40.25;;;23.33;;
33246;SDS011;19606;50.108;19.804;2022-09-25T17:20:54;35.95;;;21.88;;
33246;SDS011;19606;50.108;19.804;2022-09-25T17:23:22;38.63;;;24.80;;
33246;SDS011;19606;50.108;19.804;2022-09-25T17:25:59;43.10;;;25.92;;
33246;SDS011;19606;50.108;19.804;2022-09-25T17:28:26;40.20;;;27.98;;